Time;durP1;ratioP1;P1;durP2;ratioP2;P2;SDS_P1;SDS_P2;PMS_P1;PMS_P2;Temp;Humidity;BMP_temperature;BMP_pressure;BME280_temperature;BME280_humidity;BME280_pressure;Samples;Min_cycle;Max_cycle;Signal;HPM_P1;HPM_P2
2023/06/25 00:01:46;;;;;;;;;;;19.40;99.90;;;;;;5082768;28;19986;-74
2023/06/25 00:04:11;;;;;;;;;;;19.40;99.90;;;;;;5118072;27;20074;-75
2023/06/25 00:06:37;;;;;;;;;;;19.30;99.90;;;;;;5113013;28;19932;-75
2023/06/25 00:09:02;;;;;;;;;;;19.30;99.90;;;;;;5108745;28;20011;-74
2023/06/25 00:11:28;;;;;;;;;;;19.30;99.90;;;;;;5085686;28;19919;-75
2023/06/25 00:13:54;;;;;;;;;;;19.30;99.90;;;;;;5103018;28;20269;-75
2023/06/25 00:16:19;;;;;;;;;;;19.20;99.90;;;;;;5115725;28;20409;-76
2023/06/25 00:18:47;;;;;;;;;;;19.20;99.90;;;;;;5077946;28;20011;-76
2023/06/25 00:21:12;;;;;;;;;;;19.20;99.90;;;;;;5103396;28;19941;-75
2023/06/25 00:23:38;;;;;;;;;;;19.10;99.90;;;;;;5106782;28;20432;-76
2023/06/25 00:26:04;;;;;;;;;;;19.10;99.90;;;;;;5111381;28;19926;-75
2023/06/25 00:28:29;;;;;;;;;;;19.10;99.90;;;;;;5117683;28;20002;-75
2023/06/25 00:30:55;;;;;;;;;;;19.10;99.90;;;;;;5111837;28;19927;-74
2023/06/25 00:33:20;;;;;;;;;;;19.00;99.90;;;;;;5128185;28;20265;-75
2023/06/25 00:35:49;;;;;;;;;;;19.00;99.90;;;;;;5106872;28;19932;-76
2023/06/25 00:38:14;;;;;;;;;;;19.00;99.90;;;;;;5104444;28;20272;-75
2023/06/25 00:40:40;;;;;;;;;;;18.90;99.90;;;;;;5115407;28;19919;-76
2023/06/25 00:43:06;;;;;;;;;;;18.90;99.90;;;;;;5102763;28;20007;-76
2023/06/25 00:45:33;;;;;;;;;;;18.90;99.90;;;;;;5094375;28;20373;-75
2023/06/25 00:47:58;;;;;;;;;;;18.90;99.90;;;;;;5076120;28;20377;-76
2023/06/25 00:50:27;;;;;;;;;;;18.90;99.90;;;;;;5081986;28;20018;-76
2023/06/25 00:52:53;;;;;;;;;;;18.90;99.90;;;;;;5107650;28;19955;-76
2023/06/25 00:55:19;;;;;;;;;;;18.80;99.90;;;;;;5096449;27;19963;-75
2023/06/25 00:57:46;;;;;;;;;;;18.80;99.90;;;;;;5107405;28;20261;-76
2023/06/25 01:00:16;;;;;;;;;;;18.80;99.90;;;;;;5117718;27;19942;-75
2023/06/25 01:02:45;;;;;;;;;;;18.80;99.90;;;;;;5107366;28;19992;-75
2023/06/25 01:05:25;;;;;;;;;;;18.70;99.90;;;;;;5094961;28;19920;-75
2023/06/25 01:07:52;;;;;;;;;;;18.70;99.90;;;;;;5100988;28;19919;-76
2023/06/25 01:10:19;;;;;;;;;;;18.80;99.90;;;;;;5069666;28;19971;-75
2023/06/25 01:12:44;;;;;;;;;;;18.80;99.90;;;;;;5086446;28;19931;-76
2023/06/25 01:15:10;;;;;;;;;;;18.80;99.90;;;;;;5122884;27;19920;-75
2023/06/25 01:17:36;;;;;;;;;;;18.80;99.90;;;;;;5099642;28;19927;-74
2023/06/25 01:20:09;;;;;;;;;;;18.80;99.90;;;;;;5089617;28;19938;-75
2023/06/25 01:22:34;;;;;;;;;;;18.70;99.90;;;;;;5086684;28;19920;-76
2023/06/25 01:25:00;;;;;;;;;;;18.70;99.90;;;;;;5095231;28;19923;-76
2023/06/25 01:27:26;;;;;;;;;;;18.70;99.90;;;;;;5117429;27;19982;-75
2023/06/25 01:29:52;;;;;;;;;;;18.70;99.90;;;;;;5088787;28;19920;-74
2023/06/25 01:32:17;;;;;;;;;;;18.80;99.90;;;;;;5111771;28;19928;-75
2023/06/25 01:34:43;;;;;;;;;;;18.70;99.90;;;;;;5098196;28;19920;-75
2023/06/25 01:37:09;;;;;;;;;;;18.70;99.90;;;;;;5094334;28;19920;-75
2023/06/25 01:39:35;;;;;;;;;;;18.70;99.90;;;;;;5082941;28;19927;-76
2023/06/25 01:42:00;;;;;;;;;;;18.70;99.90;;;;;;5100484;28;19927;-76
2023/06/25 01:44:27;;;;;;;;;;;18.70;99.90;;;;;;5110211;28;19951;-75
2023/06/25 01:46:52;;;;;;;;;;;18.70;99.90;;;;;;5116524;27;19959;-76
2023/06/25 01:49:18;;;;;;;;;;;18.70;99.90;;;;;;5116888;27;19978;-75
2023/06/25 01:51:44;;;;;;;;;;;18.50;99.90;;;;;;5095523;28;19951;-76
2023/06/25 01:54:09;;;;;;;;;;;18.70;99.90;;;;;;5091380;28;19926;-75
2023/06/25 01:56:35;;;;;;;;;;;18.60;99.90;;;;;;5103873;28;19916;-75
2023/06/25 01:59:03;;;;;;;;;;;18.60;99.90;;;;;;5094543;28;19904;-75
2023/06/25 02:01:29;;;;;;;;;;;18.60;99.90;;;;;;5108482;28;19923;-75
2023/06/25 02:03:55;;;;;;;;;;;18.60;99.90;;;;;;5107073;28;19959;-75
2023/06/25 02:06:20;;;;;;;;;;;18.60;99.90;;;;;;5109390;28;20589;-74
2023/06/25 02:08:46;;;;;;;;;;;18.60;99.90;;;;;;5109298;27;20355;-75
2023/06/25 02:11:12;;;;;;;;;;;18.50;99.90;;;;;;5105086;28;20015;-75
2023/06/25 02:13:37;;;;;;;;;;;18.50;99.90;;;;;;5090633;28;19924;-76
2023/06/25 02:16:03;;;;;;;;;;;18.50;99.90;;;;;;5114446;28;19920;-76
2023/06/25 02:18:29;;;;;;;;;;;18.50;99.90;;;;;;5091411;28;19916;-75
2023/06/25 02:20:55;;;;;;;;;;;18.50;99.90;;;;;;5110309;27;20313;-75
2023/06/25 02:23:20;;;;;;;;;;;18.40;99.90;;;;;;5089709;28;19920;-74
2023/06/25 02:25:46;;;;;;;;;;;18.40;99.90;;;;;;5099588;28;19920;-75
2023/06/25 02:28:12;;;;;;;;;;;18.40;99.90;;;;;;5077886;28;19927;-75
2023/06/25 02:30:40;;;;;;;;;;;18.40;99.90;;;;;;5078985;28;19920;-75
2023/06/25 02:33:06;;;;;;;;;;;18.40;99.90;;;;;;5085797;28;20013;-78
2023/06/25 02:35:31;;;;;;;;;;;18.40;99.90;;;;;;5116900;28;19955;-75
2023/06/25 02:37:57;;;;;;;;;;;18.40;99.90;;;;;;5089942;28;19949;-75
2023/06/25 02:40:23;;;;;;;;;;;18.30;99.90;;;;;;5099263;28;19967;-75
2023/06/25 02:42:49;;;;;;;;;;;18.30;99.90;;;;;;5105032;28;19919;-75
2023/06/25 02:45:15;;;;;;;;;;;18.30;99.90;;;;;;5087244;28;20057;-78
2023/06/25 02:47:40;;;;;;;;;;;18.20;99.90;;;;;;5078754;28;19966;-75
2023/06/25 02:50:06;;;;;;;;;;;18.30;99.90;;;;;;5068064;28;19920;-74
2023/06/25 02:52:31;;;;;;;;;;;18.20;99.90;;;;;;5104615;28;19962;-76
2023/06/25 02:54:57;;;;;;;;;;;18.20;99.90;;;;;;5118057;27;19924;-75
2023/06/25 02:57:23;;;;;;;;;;;18.20;99.90;;;;;;5087828;28;19920;-75
2023/06/25 02:59:49;;;;;;;;;;;18.20;99.90;;;;;;5096891;28;19920;-75
2023/06/25 03:02:14;;;;;;;;;;;18.20;99.90;;;;;;5092296;28;20045;-76
2023/06/25 03:04:40;;;;;;;;;;;18.10;99.90;;;;;;5112607;27;19920;-75
2023/06/25 03:07:06;;;;;;;;;;;18.20;99.90;;;;;;5101051;28;19920;-74
2023/06/25 03:09:31;;;;;;;;;;;18.10;99.90;;;;;;5073408;28;19927;-76
2023/06/25 03:11:57;;;;;;;;;;;18.10;99.90;;;;;;5101262;27;19928;-74
2023/06/25 03:14:22;;;;;;;;;;;18.10;99.90;;;;;;5075232;28;19920;-76
2023/06/25 03:16:51;;;;;;;;;;;18.10;99.90;;;;;;5085167;28;19920;-75
2023/06/25 03:19:17;;;;;;;;;;;18.10;99.90;;;;;;5083136;28;20349;-75
2023/06/25 03:21:42;;;;;;;;;;;18.10;99.90;;;;;;5128286;27;19919;-74
2023/06/25 03:24:08;;;;;;;;;;;18.10;99.90;;;;;;5102407;28;19995;-76
2023/06/25 03:26:33;;;;;;;;;;;18.10;99.90;;;;;;5112801;28;19920;-75
2023/06/25 03:28:59;;;;;;;;;;;18.10;99.90;;;;;;5104348;28;19919;-75
2023/06/25 03:31:24;;;;;;;;;;;18.10;99.90;;;;;;5077748;28;19931;-74
2023/06/25 03:33:50;;;;;;;;;;;18.10;99.90;;;;;;5083091;27;20001;-75
2023/06/25 03:36:16;;;;;;;;;;;18.10;99.90;;;;;;5101004;28;19919;-75
2023/06/25 03:38:41;;;;;;;;;;;18.10;99.90;;;;;;5104309;28;20019;-74
2023/06/25 03:41:07;;;;;;;;;;;18.10;99.90;;;;;;5092138;28;19979;-75
2023/06/25 03:43:32;;;;;;;;;;;18.00;99.90;;;;;;5124163;27;19943;-75
2023/06/25 03:45:58;;;;;;;;;;;18.00;99.90;;;;;;5092795;28;19998;-74
2023/06/25 03:48:26;;;;;;;;;;;18.10;99.90;;;;;;5051144;28;19920;-74
2023/06/25 03:50:51;;;;;;;;;;;18.10;99.90;;;;;;5103315;27;19926;-76
2023/06/25 03:53:17;;;;;;;;;;;18.00;99.90;;;;;;5099741;28;19928;-75
2023/06/25 03:55:43;;;;;;;;;;;18.00;99.90;;;;;;5105340;28;19919;-75
2023/06/25 03:58:08;;;;;;;;;;;18.00;99.90;;;;;;5088836;28;19930;-75
2023/06/25 04:00:34;;;;;;;;;;;18.00;99.90;;;;;;5093266;28;20334;-74
2023/06/25 04:02:59;;;;;;;;;;;18.00;99.90;;;;;;5087152;28;19942;-75
2023/06/25 04:05:27;;;;;;;;;;;18.00;99.90;;;;;;5106835;28;19923;-75
2023/06/25 04:07:53;;;;;;;;;;;18.10;99.90;;;;;;5094557;28;20005;-75
2023/06/25 04:10:19;;;;;;;;;;;18.10;99.90;;;;;;5102738;28;19974;-76
2023/06/25 04:12:44;;;;;;;;;;;18.10;99.90;;;;;;5101509;28;19924;-75
2023/06/25 04:15:10;;;;;;;;;;;18.10;99.90;;;;;;5104753;28;19920;-75
2023/06/25 04:17:36;;;;;;;;;;;18.10;99.90;;;;;;5119582;28;20009;-76
2023/06/25 04:20:01;;;;;;;;;;;18.10;99.90;;;;;;5113230;27;20234;-76
2023/06/25 04:22:27;;;;;;;;;;;18.20;99.90;;;;;;5107284;27;19924;-74
2023/06/25 04:24:53;;;;;;;;;;;18.20;99.90;;;;;;5107830;28;19928;-76
2023/06/25 04:27:21;;;;;;;;;;;18.20;99.90;;;;;;5116567;28;19939;-75
2023/06/25 04:29:46;;;;;;;;;;;18.20;99.90;;;;;;5104380;28;19919;-75
2023/06/25 04:32:12;;;;;;;;;;;18.30;99.90;;;;;;5093465;28;19923;-74
2023/06/25 04:34:37;;;;;;;;;;;18.30;99.90;;;;;;5073136;28;19985;-76
2023/06/25 04:37:03;;;;;;;;;;;18.30;99.90;;;;;;5111326;28;19920;-76
2023/06/25 04:39:29;;;;;;;;;;;18.40;99.90;;;;;;5095796;28;19959;-76
2023/06/25 04:41:54;;;;;;;;;;;18.40;99.90;;;;;;5095466;28;19971;-75
2023/06/25 04:44:20;;;;;;;;;;;18.40;99.90;;;;;;5104688;28;20385;-76
2023/06/25 04:46:45;;;;;;;;;;;18.40;99.90;;;;;;5083566;28;19927;-75
2023/06/25 04:49:11;;;;;;;;;;;18.50;99.90;;;;;;5091760;28;19949;-75
2023/06/25 04:51:36;;;;;;;;;;;18.60;99.90;;;;;;5103994;28;19934;-75
2023/06/25 04:54:02;;;;;;;;;;;18.60;99.90;;;;;;5077443;28;19942;-74
2023/06/25 04:56:27;;;;;;;;;;;18.70;99.90;;;;;;5087780;28;19920;-74
2023/06/25 04:58:53;;;;;;;;;;;18.80;99.90;;;;;;5112041;28;19975;-74
2023/06/25 05:01:19;;;;;;;;;;;18.80;99.90;;;;;;5121546;28;19927;-74
2023/06/25 05:03:45;;;;;;;;;;;18.90;99.90;;;;;;5080508;28;19984;-75
2023/06/25 05:06:10;;;;;;;;;;;19.00;99.90;;;;;;5075165;28;19920;-74
2023/06/25 05:08:36;;;;;;;;;;;19.10;99.90;;;;;;5085321;28;19919;-74
2023/06/25 05:11:02;;;;;;;;;;;19.00;99.90;;;;;;5091025;28;19924;-74
2023/06/25 05:13:30;;;;;;;;;;;19.20;99.90;;;;;;5100792;28;20006;-74
2023/06/25 05:15:56;;;;;;;;;;;19.40;99.90;;;;;;5106940;28;20006;-74
2023/06/25 05:18:22;;;;;;;;;;;19.50;99.90;;;;;;5086218;28;19920;-74
2023/06/25 05:20:47;;;;;;;;;;;19.60;99.90;;;;;;5077563;28;19931;-73
2023/06/25 05:23:13;;;;;;;;;;;19.70;99.90;;;;;;5105609;28;19920;-75
2023/06/25 05:25:39;;;;;;;;;;;19.70;99.90;;;;;;5090155;28;19923;-74
2023/06/25 05:28:04;;;;;;;;;;;19.80;99.90;;;;;;5112062;28;20054;-74
2023/06/25 05:30:30;;;;;;;;;;;19.90;99.90;;;;;;5108365;28;19920;-74
2023/06/25 05:32:56;;;;;;;;;;;19.90;99.90;;;;;;5109576;28;20357;-74
2023/06/25 05:35:22;;;;;;;;;;;20.00;99.90;;;;;;5114194;28;19919;-75
2023/06/25 05:37:48;;;;;;;;;;;20.10;99.90;;;;;;5094144;28;20280;-75
2023/06/25 05:40:14;;;;;;;;;;;20.20;99.90;;;;;;5117036;27;19931;-75
2023/06/25 05:42:40;;;;;;;;;;;20.30;99.90;;;;;;5115904;28;20321;-74
2023/06/25 05:45:06;;;;;;;;;;;20.30;99.90;;;;;;5134209;27;19971;-74
2023/06/25 05:47:32;;;;;;;;;;;20.40;99.90;;;;;;5118010;27;19920;-74
2023/06/25 05:49:57;;;;;;;;;;;20.40;99.90;;;;;;5101224;28;19923;-74
2023/06/25 05:52:23;;;;;;;;;;;20.50;99.90;;;;;;5089026;28;19959;-74
2023/06/25 05:54:48;;;;;;;;;;;20.60;99.90;;;;;;5101960;27;19920;-73
2023/06/25 05:57:14;;;;;;;;;;;20.70;99.90;;;;;;5109133;28;19924;-74
2023/06/25 05:59:40;;;;;;;;;;;20.80;99.90;;;;;;5107263;27;20010;-75
2023/06/25 06:02:08;;;;;;;;;;;21.00;99.90;;;;;;5127508;27;19920;-74
2023/06/25 06:04:34;;;;;;;;;;;21.10;99.90;;;;;;5098168;28;19973;-75
2023/06/25 06:06:59;;;;;;;;;;;21.20;99.90;;;;;;5103540;28;20002;-74
2023/06/25 06:09:25;;;;;;;;;;;21.30;99.90;;;;;;5106399;28;19926;-74
2023/06/25 06:11:50;;;;;;;;;;;21.50;99.90;;;;;;5100899;27;19974;-73
2023/06/25 06:14:16;;;;;;;;;;;21.70;99.90;;;;;;5083960;28;19920;-75
2023/06/25 06:16:42;;;;;;;;;;;21.90;99.90;;;;;;5093944;28;19971;-75
2023/06/25 06:19:07;;;;;;;;;;;22.10;99.90;;;;;;5111023;27;20386;-74
2023/06/25 06:21:33;;;;;;;;;;;22.30;99.90;;;;;;5094793;28;20011;-75
2023/06/25 06:23:58;;;;;;;;;;;22.20;99.90;;;;;;5112686;28;19919;-74
2023/06/25 06:26:26;;;;;;;;;;;22.30;99.90;;;;;;5107352;28;19920;-76
2023/06/25 06:28:52;;;;;;;;;;;22.30;99.90;;;;;;5109714;27;19949;-74
2023/06/25 06:31:18;;;;;;;;;;;22.40;99.90;;;;;;5108408;27;19924;-74
2023/06/25 06:33:43;;;;;;;;;;;22.40;99.90;;;;;;5100399;28;20352;-73
2023/06/25 06:36:09;;;;;;;;;;;22.40;99.90;;;;;;5097722;27;20369;-76
2023/06/25 06:38:34;;;;;;;;;;;22.50;99.90;;;;;;5107704;27;19924;-75
2023/06/25 06:41:00;;;;;;;;;;;22.50;99.90;;;;;;5103460;28;19920;-74
2023/06/25 06:43:25;;;;;;;;;;;22.60;99.90;;;;;;5106800;27;19943;-76
2023/06/25 06:45:51;;;;;;;;;;;22.70;99.90;;;;;;5098944;28;19920;-74
2023/06/25 06:48:19;;;;;;;;;;;22.80;99.90;;;;;;5104249;27;20012;-75
2023/06/25 06:50:45;;;;;;;;;;;22.90;99.90;;;;;;5118922;28;20285;-74
2023/06/25 06:53:10;;;;;;;;;;;23.00;99.90;;;;;;5112568;27;19931;-74
2023/06/25 06:55:36;;;;;;;;;;;23.10;99.90;;;;;;5104680;27;19982;-76
2023/06/25 06:58:01;;;;;;;;;;;23.10;99.90;;;;;;5106221;28;19996;-75
2023/06/25 07:00:27;;;;;;;;;;;23.20;99.90;;;;;;5098348;28;19935;-74
2023/06/25 07:02:57;;;;;;;;;;;23.30;99.90;;;;;;5096084;28;19920;-77
2023/06/25 07:05:22;;;;;;;;;;;23.40;99.90;;;;;;5111277;27;19915;-75
2023/06/25 07:07:48;;;;;;;;;;;23.50;99.90;;;;;;5126885;27;19973;-75
2023/06/25 07:10:14;;;;;;;;;;;23.60;99.90;;;;;;5108364;27;19920;-74
2023/06/25 07:12:39;;;;;;;;;;;23.70;99.90;;;;;;5084849;28;20342;-74
2023/06/25 07:15:05;;;;;;;;;;;23.80;99.90;;;;;;5078944;28;20293;-75
2023/06/25 07:17:31;;;;;;;;;;;24.00;99.90;;;;;;5100033;28;20311;-75
2023/06/25 07:19:56;;;;;;;;;;;24.00;99.90;;;;;;5099579;28;19942;-75
2023/06/25 07:22:22;;;;;;;;;;;24.10;99.90;;;;;;5098404;28;19942;-75
2023/06/25 07:24:48;;;;;;;;;;;24.20;99.90;;;;;;5099586;28;20261;-74
2023/06/25 07:27:13;;;;;;;;;;;24.30;99.90;;;;;;5101720;27;20301;-76
2023/06/25 07:29:39;;;;;;;;;;;24.40;99.90;;;;;;5119933;27;19926;-75
2023/06/25 07:32:04;;;;;;;;;;;24.50;99.90;;;;;;5103992;27;19923;-76
2023/06/25 07:34:30;;;;;;;;;;;24.60;99.90;;;;;;5096274;28;19924;-75
2023/06/25 07:36:55;;;;;;;;;;;24.80;99.90;;;;;;5108670;27;20422;-76
2023/06/25 07:39:25;;;;;;;;;;;25.00;99.90;;;;;;5107953;28;20003;-76
2023/06/25 07:41:54;;;;;;;;;;;25.10;99.90;;;;;;5102879;27;20377;-74
2023/06/25 07:44:22;;;;;;;;;;;25.10;99.90;;;;;;5091159;27;19919;-75
2023/06/25 07:46:48;;;;;;;;;;;25.20;99.90;;;;;;5081852;28;19924;-74
2023/06/25 07:49:14;;;;;;;;;;;25.20;99.90;;;;;;5103107;27;20411;-75
2023/06/25 07:51:44;;;;;;;;;;;25.20;99.90;;;;;;5064998;28;19920;-75
2023/06/25 07:54:09;;;;;;;;;;;25.40;99.90;;;;;;5106629;28;19936;-77
2023/06/25 07:56:35;;;;;;;;;;;25.40;99.90;;;;;;5096791;28;19920;-76
2023/06/25 07:59:00;;;;;;;;;;;25.40;99.90;;;;;;5077200;28;20030;-74
2023/06/25 08:01:29;;;;;;;;;;;25.60;99.90;;;;;;5098008;28;20006;-76
2023/06/25 08:03:55;;;;;;;;;;;25.70;99.90;;;;;;5112552;27;19964;-74
2023/06/25 08:06:21;;;;;;;;;;;25.80;99.90;;;;;;5103676;28;19920;-74
2023/06/25 08:08:47;;;;;;;;;;;25.90;99.90;;;;;;5098308;28;19931;-75
2023/06/25 08:11:12;;;;;;;;;;;26.00;99.90;;;;;;5096629;28;20286;-75
2023/06/25 08:13:38;;;;;;;;;;;26.10;99.90;;;;;;5079507;28;19920;-76
2023/06/25 08:16:04;;;;;;;;;;;26.20;99.90;;;;;;5089200;28;19978;-75
2023/06/25 08:18:29;;;;;;;;;;;26.40;99.90;;;;;;5107357;27;20369;-77
2023/06/25 08:20:55;;;;;;;;;;;26.50;99.90;;;;;;5115562;27;19919;-75
2023/06/25 08:23:20;;;;;;;;;;;26.60;99.90;;;;;;5106408;28;20011;-75
2023/06/25 08:25:46;;;;;;;;;;;26.70;99.90;;;;;;5095222;28;19974;-75
2023/06/25 08:28:12;;;;;;;;;;;26.80;99.90;;;;;;5098050;28;19973;-75
2023/06/25 08:30:37;;;;;;;;;;;26.80;99.50;;;;;;5068911;28;19927;-75
2023/06/25 08:33:03;;;;;;;;;;;26.90;99.70;;;;;;5102882;28;19927;-74
2023/06/25 08:35:28;;;;;;;;;;;26.90;99.00;;;;;;5093568;28;20010;-76
2023/06/25 08:37:54;;;;;;;;;;;27.10;99.40;;;;;;5104657;28;20320;-75
2023/06/25 08:40:21;;;;;;;;;;;27.10;99.00;;;;;;5099051;28;19936;-75
2023/06/25 08:42:47;;;;;;;;;;;27.30;98.70;;;;;;5087770;28;19931;-76
2023/06/25 08:45:12;;;;;;;;;;;27.40;99.20;;;;;;5109733;28;20288;-76
2023/06/25 08:47:39;;;;;;;;;;;27.40;98.90;;;;;;5115636;28;19975;-76
2023/06/25 08:50:05;;;;;;;;;;;27.60;98.30;;;;;;5098553;28;19920;-75
2023/06/25 08:52:33;;;;;;;;;;;27.60;98.40;;;;;;5100013;28;20023;-75
2023/06/25 08:54:59;;;;;;;;;;;27.70;97.60;;;;;;5097639;28;20422;-76
2023/06/25 08:57:25;;;;;;;;;;;27.70;97.70;;;;;;5101931;28;19920;-76
2023/06/25 08:59:50;;;;;;;;;;;27.80;97.60;;;;;;5114998;28;19965;-76
2023/06/25 09:02:16;;;;;;;;;;;27.90;97.50;;;;;;5097778;28;20433;-76
2023/06/25 09:04:43;;;;;;;;;;;28.00;97.70;;;;;;5105828;28;20015;-75
2023/06/25 09:07:11;;;;;;;;;;;28.20;97.20;;;;;;5106020;28;19997;-74
2023/06/25 09:09:37;;;;;;;;;;;28.20;96.90;;;;;;5101326;28;20011;-73
2023/06/25 09:12:03;;;;;;;;;;;28.30;96.60;;;;;;5082354;28;20011;-73
2023/06/25 09:14:29;;;;;;;;;;;28.30;96.00;;;;;;5096160;28;19945;-73
2023/06/25 09:16:56;;;;;;;;;;;28.40;95.70;;;;;;5087441;28;19935;-74
2023/06/25 09:19:22;;;;;;;;;;;28.50;96.00;;;;;;5107502;27;19961;-73
2023/06/25 09:21:48;;;;;;;;;;;28.60;95.10;;;;;;5107585;28;19928;-73
2023/06/25 09:24:15;;;;;;;;;;;28.60;95.00;;;;;;5098452;28;19920;-73
2023/06/25 09:26:47;;;;;;;;;;;28.70;95.20;;;;;;5100813;28;20283;-74
2023/06/25 09:29:13;;;;;;;;;;;28.80;94.70;;;;;;5102885;27;19944;-73
2023/06/25 09:31:43;;;;;;;;;;;28.80;94.60;;;;;;5084101;28;20033;-73
2023/06/25 09:34:09;;;;;;;;;;;28.90;94.00;;;;;;5108334;27;19956;-74
2023/06/25 09:36:35;;;;;;;;;;;29.00;93.70;;;;;;5081527;27;19924;-72
2023/06/25 09:39:02;;;;;;;;;;;28.90;92.90;;;;;;5102883;27;19927;-72
2023/06/25 09:41:28;;;;;;;;;;;29.00;93.20;;;;;;5101373;27;20011;-74
2023/06/25 09:43:56;;;;;;;;;;;29.10;92.20;;;;;;5100016;27;20030;-72
2023/06/25 09:46:21;;;;;;;;;;;29.20;92.10;;;;;;5103425;28;20381;-73
2023/06/25 09:48:47;;;;;;;;;;;29.20;91.40;;;;;;5113523;27;19928;-73
2023/06/25 09:51:14;;;;;;;;;;;29.30;90.80;;;;;;5100908;28;19920;-74
2023/06/25 09:53:42;;;;;;;;;;;29.20;91.20;;;;;;5099024;28;19923;-73
2023/06/25 09:56:08;;;;;;;;;;;29.40;91.90;;;;;;5105752;27;19916;-73
2023/06/25 09:58:34;;;;;;;;;;;29.50;91.60;;;;;;5092335;28;19942;-73
2023/06/25 10:01:00;;;;;;;;;;;29.50;89.60;;;;;;5108297;27;19941;-74
2023/06/25 10:03:26;;;;;;;;;;;29.60;90.00;;;;;;5081816;28;19935;-73
2023/06/25 10:05:55;;;;;;;;;;;29.70;90.60;;;;;;5111615;27;19927;-74
2023/06/25 10:08:21;;;;;;;;;;;29.80;90.50;;;;;;5110250;27;19920;-73
2023/06/25 10:11:00;;;;;;;;;;;29.90;90.00;;;;;;5108776;27;19934;-75
2023/06/25 10:13:26;;;;;;;;;;;29.90;90.30;;;;;;5107434;28;20071;-76
2023/06/25 10:15:58;;;;;;;;;;;30.00;90.60;;;;;;5115227;27;19927;-73
2023/06/25 10:18:24;;;;;;;;;;;30.20;90.60;;;;;;5100728;27;20006;-76
2023/06/25 10:20:49;;;;;;;;;;;30.20;88.30;;;;;;5124961;27;20057;-75
2023/06/25 10:23:20;;;;;;;;;;;30.20;89.10;;;;;;5106385;28;19930;-75
2023/06/25 10:26:12;;;;;;;;;;;30.30;88.60;;;;;;5105229;27;19958;-75
2023/06/25 10:28:38;;;;;;;;;;;30.40;87.40;;;;;;5068498;28;20010;-75
2023/06/25 10:31:15;;;;;;;;;;;30.40;88.00;;;;;;5111083;27;19969;-73
2023/06/25 10:33:42;;;;;;;;;;;30.50;85.00;;;;;;5095917;27;19935;-74
2023/06/25 10:36:10;;;;;;;;;;;30.60;85.70;;;;;;5108398;27;19976;-74
2023/06/25 10:38:36;;;;;;;;;;;30.70;87.90;;;;;;5103518;27;19919;-74
2023/06/25 10:41:02;;;;;;;;;;;30.80;86.90;;;;;;5100281;27;20368;-75
2023/06/25 10:43:27;;;;;;;;;;;30.90;85.00;;;;;;5101191;27;19927;-73
2023/06/25 10:45:54;;;;;;;;;;;30.90;84.50;;;;;;5111437;27;19942;-77
2023/06/25 10:48:21;;;;;;;;;;;31.00;83.80;;;;;;5121321;27;19970;-78
2023/06/25 10:50:48;;;;;;;;;;;31.00;83.60;;;;;;5105430;27;19989;-78
2023/06/25 10:53:14;;;;;;;;;;;31.20;84.30;;;;;;5117015;27;20011;-77
2023/06/25 10:55:44;;;;;;;;;;;31.30;81.70;;;;;;5099725;27;19954;-77
2023/06/25 10:58:09;;;;;;;;;;;31.40;81.80;;;;;;5117078;27;19932;-77
2023/06/25 11:00:35;;;;;;;;;;;31.50;83.30;;;;;;5097557;28;19927;-78
2023/06/25 11:03:01;;;;;;;;;;;31.50;80.10;;;;;;5104189;28;19935;-77
2023/06/25 11:05:34;;;;;;;;;;;31.70;82.00;;;;;;5107747;28;19927;-76
2023/06/25 11:08:00;;;;;;;;;;;31.90;82.90;;;;;;5107357;28;19926;-77
2023/06/25 11:10:25;;;;;;;;;;;32.00;81.00;;;;;;5110228;28;19947;-76
2023/06/25 11:12:51;;;;;;;;;;;32.00;78.80;;;;;;5105851;28;19929;-78
2023/06/25 11:15:17;;;;;;;;;;;32.10;80.00;;;;;;5091713;28;19923;-76
2023/06/25 11:17:49;;;;;;;;;;;32.20;79.20;;;;;;5102019;27;19920;-78
2023/06/25 11:20:15;;;;;;;;;;;32.30;78.90;;;;;;5096584;28;20014;-78
2023/06/25 11:22:43;;;;;;;;;;;32.50;77.80;;;;;;5107746;27;20345;-78
2023/06/25 11:25:15;;;;;;;;;;;32.30;78.20;;;;;;5111306;28;19928;-78
2023/06/25 11:27:41;;;;;;;;;;;32.40;78.20;;;;;;5105678;28;20385;-77
2023/06/25 11:30:09;;;;;;;;;;;32.50;79.30;;;;;;5104836;28;19931;-76
2023/06/25 11:32:37;;;;;;;;;;;32.70;77.90;;;;;;5097145;28;20261;-78
2023/06/25 11:35:10;;;;;;;;;;;32.90;77.60;;;;;;5100980;28;19919;-79
2023/06/25 11:37:44;;;;;;;;;;;33.10;77.20;;;;;;5098247;28;19926;-76
2023/06/25 11:40:19;;;;;;;;;;;33.20;78.30;;;;;;5113462;28;19975;-78
2023/06/25 11:42:45;;;;;;;;;;;33.30;76.20;;;;;;5113352;27;19930;-78
2023/06/25 11:45:10;;;;;;;;;;;33.30;75.70;;;;;;5122295;28;20002;-78
2023/06/25 11:47:36;;;;;;;;;;;33.40;75.00;;;;;;5107844;27;19931;-76
2023/06/25 11:50:02;;;;;;;;;;;33.40;75.90;;;;;;5092169;27;19999;-77
2023/06/25 11:52:27;;;;;;;;;;;33.50;75.70;;;;;;5116332;27;19958;-77
2023/06/25 11:54:53;;;;;;;;;;;33.40;75.00;;;;;;5109758;28;20310;-75
2023/06/25 11:57:18;;;;;;;;;;;33.40;74.70;;;;;;5092171;28;20417;-78
2023/06/25 11:59:44;;;;;;;;;;;33.60;73.70;;;;;;5097019;28;20417;-75
2023/06/25 12:02:10;;;;;;;;;;;33.60;74.20;;;;;;5076048;27;19924;-78
2023/06/25 12:04:35;;;;;;;;;;;33.80;74.30;;;;;;5117023;28;19992;-77
2023/06/25 12:07:01;;;;;;;;;;;33.80;73.20;;;;;;5085256;28;19931;-77
2023/06/25 12:09:27;;;;;;;;;;;33.70;72.70;;;;;;5106955;28;19935;-77
2023/06/25 12:11:54;;;;;;;;;;;33.70;73.00;;;;;;5106264;27;20565;-78
2023/06/25 12:14:19;;;;;;;;;;;33.60;71.90;;;;;;5112588;27;20136;-78
2023/06/25 12:16:45;;;;;;;;;;;33.50;72.10;;;;;;5114447;27;19955;-77
2023/06/25 12:19:10;;;;;;;;;;;33.50;72.00;;;;;;5111037;28;19945;-79
2023/06/25 12:21:36;;;;;;;;;;;33.40;71.20;;;;;;5120137;27;19919;-77
2023/06/25 12:24:02;;;;;;;;;;;33.30;71.90;;;;;;5093181;28;19920;-77
2023/06/25 12:26:27;;;;;;;;;;;33.40;72.70;;;;;;5089613;28;19928;-78
2023/06/25 12:28:53;;;;;;;;;;;33.50;72.10;;;;;;5105560;28;19941;-76
2023/06/25 12:31:18;;;;;;;;;;;33.70;71.60;;;;;;5094805;28;19919;-77
2023/06/25 12:33:44;;;;;;;;;;;33.90;71.70;;;;;;5082374;28;19923;-78
2023/06/25 12:36:12;;;;;;;;;;;34.10;71.30;;;;;;5108909;28;20372;-78
2023/06/25 12:38:40;;;;;;;;;;;34.20;69.90;;;;;;5096464;28;19924;-78
2023/06/25 12:41:05;;;;;;;;;;;34.20;68.60;;;;;;5117159;28;19937;-79
2023/06/25 12:43:31;;;;;;;;;;;34.10;69.10;;;;;;5122191;28;19999;-78
2023/06/25 12:45:57;;;;;;;;;;;34.00;69.70;;;;;;5095779;28;20282;-76
2023/06/25 12:48:22;;;;;;;;;;;34.00;69.00;;;;;;5114841;28;19924;-78
2023/06/25 12:50:48;;;;;;;;;;;33.90;69.60;;;;;;5099618;28;20336;-77
2023/06/25 12:53:13;;;;;;;;;;;34.00;67.60;;;;;;5099320;28;19920;-78
2023/06/25 12:55:39;;;;;;;;;;;34.10;68.00;;;;;;5115500;28;20314;-77
2023/06/25 12:58:04;;;;;;;;;;;34.10;67.20;;;;;;5122355;28;19939;-78
2023/06/25 13:00:30;;;;;;;;;;;34.20;68.40;;;;;;5114363;27;19927;-77
2023/06/25 13:02:56;;;;;;;;;;;34.30;66.90;;;;;;5123316;28;19949;-79
2023/06/25 13:05:21;;;;;;;;;;;34.30;66.20;;;;;;5103446;28;19991;-79
2023/06/25 13:07:47;;;;;;;;;;;34.40;65.80;;;;;;5123180;27;19934;-76
2023/06/25 13:10:12;;;;;;;;;;;34.40;64.20;;;;;;5119345;28;19920;-79
2023/06/25 13:12:38;;;;;;;;;;;34.30;64.80;;;;;;5130294;27;19927;-77
2023/06/25 13:15:07;;;;;;;;;;;34.40;63.00;;;;;;5097022;27;19920;-79
2023/06/25 13:17:32;;;;;;;;;;;34.50;63.90;;;;;;5096698;28;19928;-78
2023/06/25 13:19:58;;;;;;;;;;;34.50;63.40;;;;;;5117772;28;19958;-79
2023/06/25 13:22:24;;;;;;;;;;;34.60;65.30;;;;;;5107962;28;20280;-78
2023/06/25 13:24:49;;;;;;;;;;;34.60;63.60;;;;;;5111845;28;20312;-78
2023/06/25 13:27:15;;;;;;;;;;;34.60;62.30;;;;;;5112092;27;19926;-77
2023/06/25 13:29:41;;;;;;;;;;;34.50;61.10;;;;;;5124621;27;20303;-77
2023/06/25 13:32:06;;;;;;;;;;;34.50;63.50;;;;;;5102386;28;19963;-78
2023/06/25 13:34:35;;;;;;;;;;;34.40;62.70;;;;;;5118046;27;19959;-80
2023/06/25 13:37:01;;;;;;;;;;;34.40;62.40;;;;;;5135216;27;19934;-77
2023/06/25 13:39:26;;;;;;;;;;;34.50;63.30;;;;;;5115304;27;19924;-78
2023/06/25 13:41:52;;;;;;;;;;;34.60;62.40;;;;;;5117380;27;19920;-77
2023/06/25 13:44:17;;;;;;;;;;;34.50;60.60;;;;;;5122238;27;19924;-78
2023/06/25 13:46:43;;;;;;;;;;;34.40;60.80;;;;;;5117018;28;19931;-77
2023/06/25 13:49:08;;;;;;;;;;;34.40;62.50;;;;;;5096331;28;19920;-75
2023/06/25 13:51:35;;;;;;;;;;;34.40;60.50;;;;;;5092036;28;19927;-76
2023/06/25 13:54:01;;;;;;;;;;;34.40;61.70;;;;;;5122671;28;19920;-76
2023/06/25 13:56:27;;;;;;;;;;;34.50;62.10;;;;;;5088655;28;19916;-77
2023/06/25 13:58:52;;;;;;;;;;;34.70;60.60;;;;;;5101894;27;20275;-77
2023/06/25 14:01:18;;;;;;;;;;;34.80;62.10;;;;;;5112237;27;19927;-77
2023/06/25 14:03:44;;;;;;;;;;;34.90;61.30;;;;;;5111620;27;20353;-76
2023/06/25 14:06:10;;;;;;;;;;;35.10;60.70;;;;;;5089256;28;19931;-77
2023/06/25 14:08:35;;;;;;;;;;;35.20;61.60;;;;;;5113563;28;19927;-78
2023/06/25 14:11:01;;;;;;;;;;;35.30;61.30;;;;;;5116618;28;19919;-77